El Jobean, Florida
Current Conditions -  °F | °C
As of 8:53 AM on Saturday 22 Nov 2014 (Local Time) from KPGD Reporting Station
Broken Clouds Broken Clouds  
Wind Chill: 75°   Ceiling: 11000
Heat Index: 75°   Visibility: 10mi
Dew Point: 66°   Wind: 15mph
Humidity: 73%   Direction: 100°E
Pressure: 30.2"   Gusts: 21mph
Location:  26.9665°N, 82.2089°W
Report Text: KPGD 221353Z 10013G18KT 10SM FEW037 BKN110 24/19 A3020 RMK AO2 SLP226 T02390189
Loading
Personal Weather Stations






























Interactive Weather Map New forecast layout! Learn more

10-Day Weather Forecast

Advertisements
Track Severe Weather on mobile